createdAt,value
2018-10-09T00:00:50.627Z,97.60
2018-10-09T00:03:18.636Z,97.90
2018-10-09T00:05:46.707Z,97.80
2018-10-09T00:08:14.751Z,97.60
2018-10-09T00:10:42.884Z,97.60
2018-10-09T00:13:11.028Z,97.60
2018-10-09T00:15:39.129Z,97.60
2018-10-09T00:18:07.239Z,97.70
2018-10-09T00:20:35.297Z,97.90
2018-10-09T00:23:03.371Z,98.00
2018-10-09T00:25:31.451Z,97.90
2018-10-09T00:27:59.614Z,98.10
2018-10-09T00:30:27.727Z,98.00
2018-10-09T00:32:56.209Z,98.00
2018-10-09T00:35:24.294Z,98.10
2018-10-09T00:37:52.409Z,98.10
2018-10-09T00:40:20.498Z,98.00
2018-10-09T00:42:48.551Z,98.20
2018-10-09T00:45:16.667Z,98.20
2018-10-09T00:47:44.711Z,98.30
2018-10-09T00:50:12.753Z,98.20
2018-10-09T00:52:40.882Z,98.40
2018-10-09T00:55:09.203Z,98.30
2018-10-09T00:57:37.496Z,98.50
2018-10-09T01:00:06.083Z,98.50
2018-10-09T01:02:34.159Z,98.30
2018-10-09T01:05:02.226Z,98.20
2018-10-09T01:07:30.401Z,98.40
2018-10-09T01:09:58.475Z,98.30
2018-10-09T01:12:26.541Z,98.40
2018-10-09T01:14:54.618Z,98.40
2018-10-09T01:17:22.678Z,98.50
2018-10-09T01:19:50.786Z,98.50
2018-10-09T01:22:18.807Z,99.10
2018-10-09T01:24:46.890Z,98.90
2018-10-09T01:27:14.965Z,99.10
2018-10-09T01:29:43.085Z,99.20
2018-10-09T01:32:11.193Z,99.20
2018-10-09T01:34:39.266Z,99.20
2018-10-09T01:37:07.331Z,99.30
2018-10-09T01:39:35.412Z,99.10
2018-10-09T01:42:03.471Z,98.90
2018-10-09T01:44:31.553Z,99.20
2018-10-09T01:46:59.834Z,99.20
2018-10-09T01:49:27.940Z,99.50
2018-10-09T01:51:56.106Z,99.20
2018-10-09T01:54:24.385Z,99.30
2018-10-09T01:56:52.478Z,99.30
2018-10-09T01:59:20.550Z,99.50
2018-10-09T02:01:48.609Z,99.40
2018-10-09T02:04:16.729Z,99.40
2018-10-09T02:06:44.790Z,99.50
2018-10-09T02:09:12.821Z,99.70
2018-10-09T02:11:40.893Z,99.90
2018-10-09T02:14:08.988Z,99.90
2018-10-09T02:16:37.040Z,99.90
2018-10-09T02:19:05.203Z,99.80
2018-10-09T02:21:33.259Z,99.80
2018-10-09T02:24:01.651Z,99.90
2018-10-09T02:26:29.735Z,99.90
2018-10-09T02:28:57.819Z,99.60
2018-10-09T02:31:25.897Z,99.90
2018-10-09T02:33:53.939Z,99.90
2018-10-09T02:36:22.015Z,99.90
2018-10-09T02:38:50.093Z,99.90
2018-10-09T02:41:18.163Z,99.90
2018-10-09T02:43:46.244Z,99.90
2018-10-09T02:46:14.297Z,99.90
2018-10-09T02:48:42.385Z,99.90
2018-10-09T02:51:10.463Z,99.90
2018-10-09T02:53:38.516Z,99.90
2018-10-09T02:56:06.598Z,99.90
2018-10-09T02:58:34.646Z,99.80
2018-10-09T03:01:02.715Z,99.90
2018-10-09T03:03:30.775Z,99.90
2018-10-09T03:05:58.876Z,99.90
2018-10-09T03:08:27.008Z,99.90
2018-10-09T03:10:55.030Z,99.90
2018-10-09T03:13:23.230Z,99.90
2018-10-09T03:15:51.396Z,99.90
2018-10-09T03:18:19.446Z,99.90
2018-10-09T03:20:47.601Z,99.90
2018-10-09T03:23:15.584Z,99.90
2018-10-09T03:25:43.656Z,99.90
2018-10-09T03:28:11.780Z,99.90
2018-10-09T03:30:39.870Z,99.90
2018-10-09T03:33:07.892Z,99.90
2018-10-09T03:35:35.950Z,99.90
2018-10-09T03:38:04.115Z,99.90
2018-10-09T03:40:32.190Z,99.90
2018-10-09T03:43:00.262Z,99.90
2018-10-09T03:45:28.405Z,99.90
2018-10-09T03:47:56.450Z,99.90
2018-10-09T03:50:24.503Z,99.90
2018-10-09T03:52:52.580Z,99.90
2018-10-09T03:55:20.677Z,99.90
2018-10-09T03:57:48.701Z,99.90
2018-10-09T04:00:16.787Z,99.90
2018-10-09T04:02:44.839Z,99.90
2018-10-09T04:05:12.893Z,99.90
2018-10-09T04:07:40.961Z,99.90
2018-10-09T04:10:09.023Z,99.90
2018-10-09T04:12:37.116Z,99.90
2018-10-09T04:15:05.734Z,99.90
2018-10-09T04:17:33.788Z,99.90
2018-10-09T04:20:01.866Z,99.90
2018-10-09T04:22:29.942Z,99.90
2018-10-09T04:24:58.002Z,99.90
2018-10-09T04:27:26.078Z,99.90
2018-10-09T04:29:54.223Z,99.90
2018-10-09T04:32:22.311Z,99.90
2018-10-09T04:34:50.364Z,99.90
2018-10-09T04:37:18.438Z,99.90
2018-10-09T04:39:46.709Z,99.90
2018-10-09T04:42:14.834Z,99.90
2018-10-09T04:44:42.904Z,99.90
2018-10-09T04:47:11.015Z,99.90
2018-10-09T04:49:39.116Z,99.90
2018-10-09T04:52:07.183Z,99.90
2018-10-09T04:54:35.415Z,99.90
2018-10-09T04:57:03.590Z,99.90
2018-10-09T04:59:31.793Z,99.90
2018-10-09T05:01:59.930Z,99.90
2018-10-09T05:04:28.183Z,99.90
2018-10-09T05:06:56.357Z,99.90
2018-10-09T05:09:24.476Z,99.90
2018-10-09T05:11:52.581Z,99.90
2018-10-09T05:14:20.690Z,99.90
2018-10-09T05:16:48.769Z,99.90
2018-10-09T05:19:16.815Z,99.90
2018-10-09T05:21:45.016Z,99.90
2018-10-09T05:24:13.082Z,99.90
2018-10-09T05:26:48.688Z,99.90
2018-10-09T05:29:17.134Z,99.90
2018-10-09T05:31:45.258Z,99.90
2018-10-09T05:34:13.347Z,99.90
2018-10-09T05:36:41.385Z,99.90
2018-10-09T05:39:09.547Z,99.90
2018-10-09T05:41:38.149Z,99.90
2018-10-09T05:44:06.396Z,99.90
2018-10-09T05:46:34.607Z,99.90
2018-10-09T05:49:02.695Z,99.90
2018-10-09T05:51:30.935Z,99.90
2018-10-09T05:53:59.138Z,99.90
2018-10-09T05:56:27.253Z,99.90
2018-10-09T05:58:55.298Z,99.90
2018-10-09T06:01:23.362Z,99.90
2018-10-09T06:03:51.473Z,99.90
2018-10-09T06:06:19.548Z,99.90
2018-10-09T06:08:47.717Z,99.90
2018-10-09T06:11:15.780Z,99.90
2018-10-09T06:13:43.847Z,99.90
2018-10-09T06:16:11.989Z,99.90
2018-10-09T06:18:40.067Z,99.90
2018-10-09T06:21:08.243Z,99.90
2018-10-09T06:23:36.366Z,99.90
2018-10-09T06:26:04.405Z,99.90
2018-10-09T06:28:32.643Z,99.90
2018-10-09T06:31:00.673Z,99.90
2018-10-09T06:33:28.926Z,99.90
2018-10-09T06:36:03.735Z,99.90
2018-10-09T06:38:31.847Z,99.90
2018-10-09T06:40:59.996Z,99.90
2018-10-09T06:43:28.075Z,99.10
2018-10-09T06:45:56.141Z,98.70
2018-10-09T06:48:24.230Z,98.30
2018-10-09T06:50:52.378Z,98.40
2018-10-09T06:53:20.536Z,98.40
2018-10-09T06:55:48.531Z,98.60
2018-10-09T06:58:16.613Z,98.80
2018-10-09T07:00:44.687Z,98.90
2018-10-09T07:03:12.749Z,98.80
2018-10-09T07:05:40.876Z,99.00
2018-10-09T07:08:09.207Z,99.10
2018-10-09T07:10:37.359Z,99.40
2018-10-09T07:13:05.458Z,99.70
2018-10-09T07:15:33.585Z,99.70
2018-10-09T07:18:01.890Z,99.60
2018-10-09T07:20:30.030Z,99.50
2018-10-09T07:22:58.177Z,99.20
2018-10-09T07:25:26.313Z,99.10
2018-10-09T07:27:54.768Z,98.90
2018-10-09T07:30:22.831Z,98.70
2018-10-09T07:32:50.958Z,98.50
2018-10-09T07:35:19.081Z,98.30
2018-10-09T07:37:47.157Z,98.30
2018-10-09T07:40:15.289Z,98.70
2018-10-09T07:42:43.591Z,98.40
2018-10-09T07:45:11.716Z,98.10
2018-10-09T07:47:39.889Z,97.80
2018-10-09T07:50:07.958Z,97.40
2018-10-09T07:52:36.020Z,97.10
2018-10-09T07:55:04.195Z,97.00
2018-10-09T07:57:32.482Z,96.70
2018-10-09T08:00:00.554Z,96.50
2018-10-09T08:02:28.633Z,96.70
2018-10-09T08:04:57.054Z,96.40
2018-10-09T08:07:25.146Z,95.80
2018-10-09T08:09:53.239Z,95.60
2018-10-09T08:12:21.715Z,95.80
2018-10-09T08:14:49.812Z,95.70
2018-10-09T08:17:17.903Z,95.60
2018-10-09T08:19:46.088Z,95.70
2018-10-09T08:22:14.418Z,95.70
2018-10-09T08:24:42.496Z,95.20
2018-10-09T08:27:10.587Z,95.00
2018-10-09T08:29:38.785Z,94.60
2018-10-09T08:32:06.964Z,94.40
2018-10-09T08:34:35.107Z,94.10
2018-10-09T08:37:03.107Z,93.80
2018-10-09T08:39:31.202Z,93.70
2018-10-09T08:41:59.268Z,93.40
2018-10-09T08:44:27.350Z,93.00
2018-10-09T08:46:55.434Z,92.50
2018-10-09T08:49:23.575Z,91.90
2018-10-09T08:51:51.681Z,91.90
2018-10-09T08:54:19.728Z,91.40
2018-10-09T08:56:47.790Z,91.30
2018-10-09T08:59:15.864Z,90.90
2018-10-09T09:01:43.922Z,91.10
2018-10-09T09:04:12.036Z,91.10
2018-10-09T09:06:40.123Z,90.50
2018-10-09T09:09:09.612Z,90.70
2018-10-09T09:11:37.790Z,90.70
2018-10-09T09:14:05.924Z,90.70
2018-10-09T09:16:34.235Z,90.60
2018-10-09T09:19:02.352Z,90.50
2018-10-09T09:21:30.990Z,90.60
2018-10-09T09:23:59.092Z,90.40
2018-10-09T09:26:27.214Z,90.40
2018-10-09T09:28:55.296Z,90.30
2018-10-09T09:31:23.354Z,90.20
2018-10-09T09:33:51.451Z,89.70
2018-10-09T09:36:19.532Z,89.30
2018-10-09T09:38:47.664Z,89.10
2018-10-09T09:41:15.711Z,88.90
2018-10-09T09:43:43.764Z,88.10
2018-10-09T09:46:11.981Z,86.80
2018-10-09T09:48:40.019Z,86.00
2018-10-09T09:51:08.112Z,85.70
2018-10-09T09:53:36.343Z,86.20
2018-10-09T09:56:04.438Z,86.70
2018-10-09T09:58:32.667Z,87.30
2018-10-09T10:01:06.011Z,86.70
2018-10-09T10:03:34.092Z,86.70
2018-10-09T10:06:02.165Z,85.30
2018-10-09T10:08:30.244Z,84.70
2018-10-09T10:10:58.537Z,83.60
2018-10-09T10:13:26.613Z,83.40
2018-10-09T10:15:54.840Z,83.00
2018-10-09T10:18:22.774Z,82.40
2018-10-09T10:20:50.874Z,82.70
2018-10-09T10:23:19.254Z,82.10
2018-10-09T10:25:47.690Z,81.40
2018-10-09T10:28:16.050Z,80.50
2018-10-09T10:30:44.122Z,80.70
2018-10-09T10:33:12.389Z,80.10
2018-10-09T10:35:40.547Z,78.60
2018-10-09T10:38:08.661Z,78.70
2018-10-09T10:40:36.904Z,76.80
2018-10-09T10:43:05.275Z,75.80
2018-10-09T10:45:33.361Z,75.00
2018-10-09T10:48:01.532Z,74.70
2018-10-09T10:50:29.604Z,74.60
2018-10-09T10:52:57.779Z,74.30
2018-10-09T10:55:25.857Z,72.70
2018-10-09T10:57:53.989Z,71.00
2018-10-09T11:00:22.128Z,69.40
2018-10-09T11:02:50.242Z,69.50
2018-10-09T11:05:18.347Z,68.90
2018-10-09T11:07:46.488Z,66.90
2018-10-09T11:10:14.579Z,66.30
2018-10-09T11:12:42.693Z,67.10
2018-10-09T11:15:10.812Z,66.00
2018-10-09T11:17:38.962Z,64.70
2018-10-09T11:20:07.178Z,65.20
2018-10-09T11:22:35.348Z,65.50
2018-10-09T11:25:03.674Z,63.80
2018-10-09T11:27:31.795Z,64.90
2018-10-09T11:29:59.893Z,63.90
2018-10-09T11:32:28.062Z,64.10
2018-10-09T11:34:56.085Z,64.60
2018-10-09T11:37:24.189Z,64.30
2018-10-09T11:39:52.362Z,64.60
2018-10-09T11:42:20.455Z,64.80
2018-10-09T11:44:48.571Z,62.90
2018-10-09T11:47:16.682Z,62.30
2018-10-09T11:49:44.779Z,61.10
2018-10-09T11:52:12.925Z,59.50
2018-10-09T11:54:41.011Z,59.80
2018-10-09T11:57:09.172Z,59.40
2018-10-09T11:59:37.245Z,59.20
2018-10-09T12:02:05.401Z,59.10
2018-10-09T12:04:33.506Z,59.70
2018-10-09T12:07:01.862Z,58.90
2018-10-09T12:09:29.952Z,59.50
2018-10-09T12:11:58.019Z,59.40
2018-10-09T12:14:26.087Z,59.40
2018-10-09T12:16:54.989Z,59.20
2018-10-09T12:19:23.553Z,59.60
2018-10-09T12:21:51.766Z,60.00
2018-10-09T12:24:19.913Z,59.80
2018-10-09T12:26:48.111Z,60.50
2018-10-09T12:29:16.228Z,60.60
2018-10-09T12:31:44.312Z,60.20
2018-10-09T12:34:12.430Z,60.50
2018-10-09T12:36:40.592Z,60.50
2018-10-09T12:39:10.443Z,60.80
2018-10-09T12:41:38.573Z,60.50
2018-10-09T12:44:06.763Z,61.10
2018-10-09T12:46:35.376Z,61.60
2018-10-09T12:49:03.755Z,62.10
2018-10-09T12:51:31.854Z,62.20
2018-10-09T12:54:00.338Z,61.50
2018-10-09T12:56:28.458Z,61.20
2018-10-09T12:58:56.543Z,61.30
2018-10-09T13:01:24.769Z,61.60
2018-10-09T13:03:52.874Z,61.50
2018-10-09T13:06:21.061Z,61.10
2018-10-09T13:08:49.165Z,61.60
2018-10-09T13:11:17.276Z,61.80
2018-10-09T13:13:45.405Z,62.30
2018-10-09T13:16:13.502Z,61.90
2018-10-09T13:18:41.623Z,62.20
2018-10-09T13:21:09.889Z,62.50
2018-10-09T13:23:37.895Z,62.90
2018-10-09T13:26:06.225Z,62.80
2018-10-09T13:28:34.394Z,62.70
2018-10-09T13:31:02.582Z,62.70
2018-10-09T13:33:30.715Z,62.60
2018-10-09T13:35:58.798Z,62.80
2018-10-09T13:38:26.893Z,62.80
2018-10-09T13:40:55.003Z,61.70
2018-10-09T13:43:23.056Z,60.60
2018-10-09T13:45:51.148Z,60.70
2018-10-09T13:48:19.238Z,60.30
2018-10-09T13:50:47.377Z,60.50
2018-10-09T13:53:15.415Z,60.50
2018-10-09T13:55:43.623Z,60.40
2018-10-09T13:58:11.746Z,60.60
2018-10-09T14:00:40.002Z,60.70
2018-10-09T14:03:08.204Z,61.00
2018-10-09T14:05:36.300Z,62.20
2018-10-09T14:08:04.427Z,61.60
2018-10-09T14:10:32.555Z,61.30
2018-10-09T14:13:00.685Z,61.50
2018-10-09T14:15:28.835Z,61.60
2018-10-09T14:17:56.940Z,61.80
2018-10-09T14:20:25.043Z,62.10
2018-10-09T14:22:53.524Z,62.60
2018-10-09T14:25:21.772Z,62.80
2018-10-09T14:27:49.861Z,62.90
2018-10-09T14:30:17.989Z,63.40
2018-10-09T14:32:46.108Z,64.90
2018-10-09T14:35:14.178Z,64.70
2018-10-09T14:37:42.266Z,64.80
2018-10-09T14:40:10.325Z,65.40
2018-10-09T14:42:38.425Z,65.90
2018-10-09T14:45:06.690Z,66.30
2018-10-09T14:47:34.912Z,66.60
2018-10-09T14:50:03.019Z,67.10
2018-10-09T14:52:31.222Z,67.40
2018-10-09T14:54:59.332Z,68.10
2018-10-09T14:57:27.484Z,68.10
2018-10-09T14:59:55.552Z,67.90
2018-10-09T15:02:23.688Z,67.90
2018-10-09T15:04:51.774Z,68.30
2018-10-09T15:07:20.870Z,68.70
2018-10-09T15:09:48.946Z,68.90
2018-10-09T15:12:17.052Z,69.00
2018-10-09T15:14:45.116Z,68.80
2018-10-09T15:17:13.252Z,68.80
2018-10-09T15:19:41.356Z,69.10
2018-10-09T15:22:09.533Z,69.20
2018-10-09T15:24:37.665Z,69.40
2018-10-09T15:27:05.752Z,69.40
2018-10-09T15:29:33.874Z,69.50
2018-10-09T15:32:02.030Z,69.00
2018-10-09T15:34:30.138Z,69.00
2018-10-09T15:36:58.297Z,69.00
2018-10-09T15:39:26.424Z,69.20
2018-10-09T15:41:54.496Z,69.60
2018-10-09T15:44:22.577Z,69.70
2018-10-09T15:46:50.673Z,69.90
2018-10-09T15:49:18.864Z,70.40
2018-10-09T15:51:46.920Z,71.00
2018-10-09T15:54:14.994Z,71.70
2018-10-09T15:56:43.084Z,72.50
2018-10-09T15:59:11.163Z,73.10
2018-10-09T16:01:39.337Z,73.60
2018-10-09T16:04:07.730Z,74.40
2018-10-09T16:06:35.998Z,75.20
2018-10-09T16:09:05.566Z,75.40
2018-10-09T16:11:33.704Z,75.70
2018-10-09T16:14:01.792Z,76.10
2018-10-09T16:16:29.868Z,76.50
2018-10-09T16:18:57.969Z,77.10
2018-10-09T16:21:26.116Z,77.80
2018-10-09T16:23:54.246Z,78.60
2018-10-09T16:26:22.379Z,79.70
2018-10-09T16:28:50.446Z,80.40
2018-10-09T16:31:18.610Z,80.60
2018-10-09T16:33:46.734Z,81.00
2018-10-09T16:36:14.893Z,81.60
2018-10-09T16:38:42.987Z,82.10
2018-10-09T16:41:11.235Z,83.10
2018-10-09T16:43:39.318Z,83.60
2018-10-09T16:46:07.916Z,84.00
2018-10-09T16:48:36.159Z,84.60
2018-10-09T16:51:04.308Z,85.70
2018-10-09T16:53:32.422Z,86.10
2018-10-09T16:56:00.535Z,86.90
2018-10-09T16:58:28.877Z,86.90
2018-10-09T17:00:56.919Z,88.10
2018-10-09T17:03:25.074Z,87.50
2018-10-09T17:05:53.190Z,88.40
2018-10-09T17:08:21.323Z,88.80
2018-10-09T17:10:49.388Z,89.50
2018-10-09T17:13:17.486Z,90.10
2018-10-09T17:15:45.608Z,90.40
2018-10-09T17:18:13.703Z,90.60
2018-10-09T17:20:41.815Z,90.80
2018-10-09T17:23:09.945Z,91.10
2018-10-09T17:25:38.063Z,91.40
2018-10-09T17:28:06.290Z,91.80
2018-10-09T17:30:34.378Z,91.70
2018-10-09T17:33:02.541Z,91.70
2018-10-09T17:35:30.640Z,91.90
2018-10-09T17:37:58.826Z,92.00
2018-10-09T17:40:27.032Z,92.10
2018-10-09T17:42:55.280Z,92.30
2018-10-09T17:45:23.383Z,92.60
2018-10-09T17:47:51.520Z,92.70
2018-10-09T17:50:19.652Z,93.00
2018-10-09T17:52:47.759Z,93.10
2018-10-09T17:55:15.822Z,93.60
2018-10-09T17:57:43.930Z,93.50
2018-10-09T18:00:12.115Z,93.80
2018-10-09T18:02:40.206Z,94.10
2018-10-09T18:05:08.310Z,94.50
2018-10-09T18:07:36.479Z,94.70
2018-10-09T18:10:04.591Z,95.00
2018-10-09T18:12:32.710Z,95.20
2018-10-09T18:15:00.826Z,95.50
2018-10-09T18:17:28.905Z,95.70
2018-10-09T18:19:57.220Z,95.80
2018-10-09T18:22:25.301Z,95.70
2018-10-09T18:24:53.439Z,96.00
2018-10-09T18:27:21.589Z,96.10
2018-10-09T18:29:49.793Z,96.30
2018-10-09T18:32:17.898Z,96.10
2018-10-09T18:34:46.000Z,96.70
2018-10-09T18:37:14.088Z,96.20
2018-10-09T18:39:42.178Z,96.50
2018-10-09T18:42:10.295Z,96.70
2018-10-09T18:44:38.400Z,96.90
2018-10-09T18:47:10.751Z,97.60
2018-10-09T18:49:38.844Z,97.80
2018-10-09T18:52:06.923Z,97.80
2018-10-09T18:54:35.016Z,97.70
2018-10-09T18:57:03.103Z,97.70
2018-10-09T18:59:31.156Z,97.80
2018-10-09T19:01:59.266Z,97.90
2018-10-09T19:04:27.340Z,97.90
2018-10-09T19:06:55.487Z,98.00
2018-10-09T19:09:23.540Z,98.00
2018-10-09T19:11:51.633Z,97.80
2018-10-09T19:14:19.752Z,97.90
2018-10-09T19:16:47.878Z,98.20
2018-10-09T19:19:15.974Z,97.80
2018-10-09T19:21:44.130Z,98.10
2018-10-09T19:24:12.481Z,97.90
2018-10-09T19:26:40.566Z,98.10
2018-10-09T19:29:08.651Z,98.10
2018-10-09T19:31:36.900Z,98.30
2018-10-09T19:34:05.003Z,98.70
2018-10-09T19:36:33.115Z,98.80
2018-10-09T19:39:01.454Z,99.10
2018-10-09T19:41:29.704Z,98.80
2018-10-09T19:43:57.801Z,98.50
2018-10-09T19:46:25.890Z,98.70
2018-10-09T19:48:54.009Z,98.80
2018-10-09T19:51:22.205Z,99.50
2018-10-09T19:53:50.258Z,99.90
2018-10-09T19:56:18.470Z,99.90
2018-10-09T19:58:46.659Z,99.90
2018-10-09T20:01:14.880Z,99.90
2018-10-09T20:03:42.962Z,99.90
2018-10-09T20:06:11.128Z,99.90
2018-10-09T20:08:39.259Z,99.90
2018-10-09T20:11:07.344Z,99.90
2018-10-09T20:13:35.487Z,99.90
2018-10-09T20:16:03.711Z,99.90
2018-10-09T20:18:31.966Z,99.90
2018-10-09T20:21:00.258Z,99.90
2018-10-09T20:23:28.741Z,99.90
2018-10-09T20:25:56.812Z,99.90
2018-10-09T20:28:24.941Z,99.90
2018-10-09T20:30:53.079Z,99.90
2018-10-09T20:33:21.194Z,99.90
2018-10-09T20:35:49.278Z,99.90
2018-10-09T20:38:17.381Z,99.90
2018-10-09T20:40:45.512Z,99.90
2018-10-09T20:43:13.594Z,99.90
2018-10-09T20:45:41.739Z,99.90
2018-10-09T20:48:09.823Z,99.90
2018-10-09T20:50:38.015Z,99.90
2018-10-09T20:53:06.314Z,99.90
2018-10-09T20:55:34.426Z,99.90
2018-10-09T20:58:02.539Z,99.90
2018-10-09T21:00:30.588Z,99.90
2018-10-09T21:02:58.771Z,99.90
2018-10-09T21:05:26.858Z,99.90
2018-10-09T21:07:55.018Z,99.90
2018-10-09T21:10:23.114Z,99.90
2018-10-09T21:12:51.242Z,99.90
2018-10-09T21:15:19.356Z,99.90
2018-10-09T21:17:47.559Z,99.90
2018-10-09T21:20:15.550Z,99.90
2018-10-09T21:22:43.646Z,99.90
2018-10-09T21:25:11.785Z,99.90
2018-10-09T21:27:39.922Z,99.90
2018-10-09T21:30:14.895Z,99.90
2018-10-09T21:32:43.064Z,99.90
2018-10-09T21:35:11.118Z,99.90
2018-10-09T21:37:39.243Z,99.90
2018-10-09T21:40:07.870Z,99.90
2018-10-09T21:42:35.951Z,99.90
2018-10-09T21:45:04.117Z,99.90
2018-10-09T21:47:32.191Z,99.90
2018-10-09T21:50:00.262Z,99.90
2018-10-09T21:52:28.386Z,99.90
2018-10-09T21:54:56.427Z,99.90
2018-10-09T21:57:24.586Z,99.90
2018-10-09T21:59:52.735Z,99.90
2018-10-09T22:02:20.906Z,99.90
2018-10-09T22:04:49.002Z,99.90
2018-10-09T22:07:18.191Z,99.90
2018-10-09T22:09:46.522Z,99.90
2018-10-09T22:12:14.910Z,99.90
2018-10-09T22:14:43.026Z,99.90
2018-10-09T22:17:11.099Z,99.90
2018-10-09T22:19:39.173Z,99.90
2018-10-09T22:22:07.247Z,99.90
2018-10-09T22:24:35.478Z,99.90
2018-10-09T22:27:03.531Z,99.90
2018-10-09T22:29:31.668Z,99.90
2018-10-09T22:31:59.780Z,99.90
2018-10-09T22:34:27.850Z,99.90
2018-10-09T22:36:55.883Z,99.90
2018-10-09T22:39:23.966Z,99.90
2018-10-09T22:41:52.026Z,99.90
2018-10-09T22:44:20.096Z,99.90
2018-10-09T22:46:48.170Z,99.90
2018-10-09T22:49:16.335Z,99.90
2018-10-09T22:51:44.475Z,99.90
2018-10-09T22:54:12.666Z,99.90
2018-10-09T22:56:40.784Z,99.90
2018-10-09T22:59:08.858Z,99.90
2018-10-09T23:01:36.971Z,99.90
2018-10-09T23:04:05.094Z,99.90
2018-10-09T23:06:33.186Z,99.90
2018-10-09T23:09:01.312Z,99.90
2018-10-09T23:11:29.429Z,99.90
2018-10-09T23:13:57.489Z,99.90
2018-10-09T23:16:25.722Z,99.90
2018-10-09T23:18:53.842Z,99.90
2018-10-09T23:21:22.000Z,99.90
2018-10-09T23:23:50.155Z,99.90
2018-10-09T23:26:18.382Z,99.90
2018-10-09T23:28:46.505Z,99.90
2018-10-09T23:31:14.644Z,99.90
2018-10-09T23:33:42.936Z,99.90
2018-10-09T23:36:11.049Z,99.90
2018-10-09T23:38:39.223Z,99.90
2018-10-09T23:41:07.589Z,99.90
2018-10-09T23:43:35.674Z,99.90
2018-10-09T23:46:03.903Z,99.90
2018-10-09T23:48:32.108Z,99.90
2018-10-09T23:51:00.316Z,99.90
2018-10-09T23:53:28.443Z,99.90
2018-10-09T23:55:56.602Z,99.90
2018-10-09T23:58:24.694Z,99.90
